FAO weather

Faro Airport
Faro, Faro District, Portugal

Public forecast

Using degrees Celsius for public forecast. Weather courtesy of forecast.io.

Current aviation weather report (METAR) for Faro Airport

Retrieved 2019/10/22 10:30 UTC (0 seconds ago):

LPFR 221030Z 01006KT 320V050 9999 FEW025 18/08 Q1012

Aviation forecast (TAF) for Faro Airport

Retrieved 2019/10/22 06:18 UTC (4 hours ago):

TAF LPFR 220500Z 2206/2306 VRB03KT 9999 FEW020 TEMPO 2206/2218 9999 FEW020 FEW030TCU PROB30 TEMPO 2206/2215 3000 TSRA BKN015 FEW030CB BECMG 2210/2212 19007KT BECMG 2212/2214 21010KT BECMG 2215/2217 25010KT BECMG 2218/2220 33008KT CAVOK